TimeEDT,TemperatureF,Dew PointF,Humidity,Sea Level PressureIn,VisibilityMPH,Wind Direction,Wind SpeedMPH,Gust SpeedMPH,PrecipitationIn,Events,Conditions,WindDirDegrees,DateUTC
12:54 AM,64.0,62.1,93,29.78,8.0,Variable,3.5,-,N/A,,Overcast,0,2013-08-02 04:54:00
1:54 AM,64.0,62.1,93,29.77,6.0,SW,3.5,-,0.00,,Overcast,230,2013-08-02 05:54:00
2:37 AM,62.6,62.6,100,29.83,3.0,Calm,Calm,-,N/A,,Overcast,0,2013-08-02 06:37:00
2:44 AM,62.6,62.6,100,29.83,3.0,Calm,Calm,-,N/A,,Overcast,0,2013-08-02 06:44:00
2:54 AM,63.0,62.1,97,29.77,3.0,Calm,Calm,-,N/A,,Overcast,0,2013-08-02 06:54:00
3:18 AM,62.6,62.6,100,29.83,4.0,WSW,4.6,-,N/A,,Overcast,250,2013-08-02 07:18:00
3:54 AM,64.0,62.1,93,29.77,9.0,WNW,3.5,-,N/A,,Mostly Cloudy,290,2013-08-02 07:54:00
4:18 AM,64.4,60.8,88,29.83,10.0,WNW,6.9,-,N/A,,Mostly Cloudy,300,2013-08-02 08:18:00
4:31 AM,64.4,60.8,88,29.83,10.0,West,5.8,-,0.00,Rain,Light Rain,280,2013-08-02 08:31:00
4:54 AM,64.0,61.0,90,29.77,10.0,WNW,3.5,-,0.00,,Mostly Cloudy,300,2013-08-02 08:54:00
5:13 AM,62.6,60.8,94,29.83,10.0,West,6.9,-,N/A,,Scattered Clouds,280,2013-08-02 09:13:00
5:39 AM,62.6,60.8,94,29.84,9.0,West,4.6,-,N/A,,Mostly Cloudy,260,2013-08-02 09:39:00
5:54 AM,63.0,60.1,90,29.79,10.0,West,5.8,-,N/A,,Mostly Cloudy,280,2013-08-02 09:54:00
6:00 AM,62.6,60.8,94,29.85,9.0,WNW,4.6,-,N/A,,Scattered Clouds,300,2013-08-02 10:00:00
6:39 AM,64.4,60.8,88,29.86,10.0,Calm,Calm,-,N/A,,Mostly Cloudy,0,2013-08-02 10:39:00
6:54 AM,63.0,61.0,93,29.81,9.0,West,4.6,-,N/A,,Overcast,280,2013-08-02 10:54:00
7:30 AM,64.4,60.8,88,29.87,9.0,West,4.6,-,N/A,,Mostly Cloudy,280,2013-08-02 11:30:00
7:54 AM,64.9,61.0,87,29.82,10.0,WNW,6.9,-,N/A,,Mostly Cloudy,290,2013-08-02 11:54:00
8:01 AM,64.4,60.8,88,29.88,10.0,NW,6.9,-,N/A,,Mostly Cloudy,310,2013-08-02 12:01:00
8:15 AM,66.2,62.6,88,29.87,10.0,West,6.9,-,N/A,,Mostly Cloudy,280,2013-08-02 12:15:00
8:30 AM,66.2,60.8,83,29.88,10.0,NW,6.9,-,N/A,,Scattered Clouds,310,2013-08-02 12:30:00
8:50 AM,66.2,60.8,83,29.89,10.0,WNW,10.4,16.1,N/A,,Mostly Cloudy,290,2013-08-02 12:50:00
8:54 AM,66.0,60.1,81,29.83,10.0,WNW,8.1,16.1,N/A,,Mostly Cloudy,290,2013-08-02 12:54:00
9:01 AM,66.2,60.8,83,29.88,10.0,WNW,8.1,-,N/A,,Mostly Cloudy,290,2013-08-02 13:01:00
9:32 AM,69.8,60.8,73,29.88,10.0,NW,6.9,-,N/A,,Scattered Clouds,320,2013-08-02 13:32:00
9:54 AM,69.1,60.1,73,29.82,10.0,NW,9.2,-,N/A,,Scattered Clouds,320,2013-08-02 13:54:00
10:38 AM,69.8,59.0,68,29.89,10.0,WNW,10.4,-,N/A,,Mostly Cloudy,300,2013-08-02 14:38:00
10:49 AM,71.6,59.0,64,29.89,10.0,Variable,6.9,-,N/A,,Scattered Clouds,0,2013-08-02 14:49:00
10:54 AM,71.1,59.0,66,29.83,10.0,NW,9.2,-,N/A,,Partly Cloudy,310,2013-08-02 14:54:00
11:54 AM,73.0,59.0,61,29.83,10.0,Variable,6.9,-,N/A,,Mostly Cloudy,0,2013-08-02 15:54:00
12:54 PM,73.9,57.0,55,29.81,10.0,West,8.1,-,N/A,,Scattered Clouds,270,2013-08-02 16:54:00
1:54 PM,77.0,55.9,48,29.80,10.0,WSW,12.7,-,N/A,,Scattered Clouds,250,2013-08-02 17:54:00
2:54 PM,75.9,57.0,52,29.80,10.0,WNW,10.4,-,N/A,,Mostly Cloudy,300,2013-08-02 18:54:00
3:54 PM,77.0,53.1,43,29.79,10.0,West,12.7,-,N/A,,Partly Cloudy,270,2013-08-02 19:54:00
4:54 PM,78.1,54.0,43,29.78,10.0,West,12.7,-,N/A,,Clear,270,2013-08-02 20:54:00
5:54 PM,77.0,53.1,43,29.78,10.0,WSW,9.2,-,N/A,,Clear,250,2013-08-02 21:54:00
6:54 PM,73.9,55.9,53,29.79,10.0,WSW,4.6,-,N/A,,Clear,240,2013-08-02 22:54:00
7:54 PM,66.9,60.1,79,29.84,2.0,WSW,24.2,33.4,0.03,Rain,Rain,240,2013-08-02 23:54:00
8:01 PM,64.4,59.0,83,29.91,1.5,SW,12.7,33.4,0.01,Rain,Light Rain,230,2013-08-03 00:01:00
8:18 PM,62.6,59.0,88,29.89,3.0,SSW,6.9,-,0.09,Rain,Light Rain,200,2013-08-03 00:18:00
8:54 PM,62.1,59.0,90,29.83,10.0,Calm,Calm,-,0.09,,Overcast,0,2013-08-03 00:54:00
9:54 PM,63.0,57.9,84,29.83,10.0,SSW,5.8,-,0.00,,Overcast,210,2013-08-03 01:54:00
10:54 PM,60.1,59.0,96,29.84,6.0,Calm,Calm,-,N/A,,Overcast,0,2013-08-03 02:54:00
11:54 PM,60.1,57.9,93,29.83,8.0,Calm,Calm,-,0.00,,Scattered Clouds,0,2013-08-03 03:54:00